Virgilina, VA (24598)

02:32 PM EDT del 01 Settembre 2014 (GMT -0400)
Scottsburg, VA | Change Station
CLOSE
Current Station
Stazione meteo personale
Location: Scottsburg, VA
Altitudine: 348 ft
Stazioni meteo nelle vicinanze

Alt. 348 ft 36.70 °N, 78.66 °W | Updated 8 minutes ago

Parzialmente nuvoloso
Parzialmente nuvoloso
88.6 °F
Sembra 96 °F
N
5.0
Vento Variabile Vento da OSO
Gusts 11.0 mph

Oggi
Massima -- | Minima -- °F
--% Possibilità di precip.
Ieri
Massima -- | Minima -- °F
Precip. -- in
6:46 AM 7:43 PM
Luna crescente, 43% visible
Pressione 30.07 in
Visibilità 10.0 miglia
Nuvole Sereno
Indice di calore 96 °F
Punto di rugiada 73 °F
Umidità 60%
Piovosità 0.00 in
Spessore del manto nevoso Non disponibile.
Raggi UV 9 fuori da 12
Polline 9.40 fuori da 12
Qualità dell'aria Non disponibile.
Flu Activity Non disponibile.
METAR KHNZ 011815Z AUTO 33004KT 10SM CLR 32/19 A3007 RMK AO2 T03150188

More Conditions Fewer Conditions

Pressione 30.07 in
Visibilità 10.0 miglia
Nuvole Sereno
Indice di calore 96 °F
Punto di rugiada 73 °F
Umidità 60%
Piovosità 0.00 in
Spessore del manto nevoso Non disponibile.
Raggi UV 9 fuori da 12
Polline 9.40 fuori da 12
Qualità dell'aria Non disponibile.
Flu Activity Non disponibile.
METAR KHNZ 011815Z AUTO 33004KT 10SM CLR 32/19 A3007 RMK AO2 T03150188

More Conditions Fewer Conditions

10-Day Weather Forecast

Almanac

Astronomia

Sep. 01, 2014 Alba Tramonto
Ora attuale 06:46 EDT 19:43 EDT
Crepuscolo civile 06:19 EDT 20:09 EDT
Crepuscolo nautico 05:48 EDT 20:40 EDT
Crepuscolo astronomico 05:16 EDT 21:13 EDT
Luna 13:19 EDT 23:53 EDT
Estensione della luce visibile 13h 49m
Lunghezza del giorno
12h 56m
Tomorrow will be 2m 14s shorter.
Luna crescente, 43% of the Moon is Illuminated
Oggi
Luna crescente
Set 2
Primo quarto
Set 8
Luna piena
Set 15
Ultimo quarto
Set 24
Nuovo

Gli estremi di oggi

State Highs State Lows

Community

WunderPhotos

Upload Photos

1,749,350 foto caricate!

Nearby

Profondità neve

Stazione Profondità Altitudine
Non sono state evidenziate nuove nevicate

Attività sismica

Città  Distanza Mag. Data & Ora
Non sono state riportate attività sismiche nelle vicinanze.
Minimo Magnitudo Mostrato è 2.5.

Temperature delle acque costiere

Località Temperatura
Nessun dato dalle stazioni

Stazioni meteo nelle vicinanze